Terminal Aerodrome Forecast
Issued by NWS Detroit/Pontiac, MI

Home | Current Version | Previous Version | Text Only | Print | Product List | Glossary On
Versions: 1 2 3 4 5 6 7 8 9 10 11 12 13 14 15 16 17 18 19 20 21 22 23 24 25 26 27 28 29 30 31 32
499
FTUS43 KDTX 172320
TAFDTW
TAF
KDTW 172320Z 1800/1906 21006KT P6SM OVC026
      TEMPO 1802/1805 2SM -SHSN OVC018
     FM180600 24006KT P6SM SCT008 OVC022
     FM180900 26009KT P6SM BKN022
     FM181400 20008KT P6SM SCT026
     FM181900 16010KT P6SM SCT250=

USA.gov is the U.S. government's official web portal to all federal, state and local government web resources and services.